sensor_id;sensor_type;location;lat;lon;timestamp;P1;durP1;ratioP1;P2;durP2;ratioP2
20621;SDS011;10470;42.670;23.354;2022-10-15T00:00:49;4.63;;;3.47;;
20621;SDS011;10470;42.670;23.354;2022-10-15T00:03:14;5.60;;;3.40;;
20621;SDS011;10470;42.670;23.354;2022-10-15T00:05:40;5.77;;;3.70;;
20621;SDS011;10470;42.670;23.354;2022-10-15T00:08:06;5.50;;;3.73;;
20621;SDS011;10470;42.670;23.354;2022-10-15T00:10:33;3.97;;;3.60;;
20621;SDS011;10470;42.670;23.354;2022-10-15T00:12:59;4.13;;;3.73;;
20621;SDS011;10470;42.670;23.354;2022-10-15T00:15:25;4.03;;;3.63;;
20621;SDS011;10470;42.670;23.354;2022-10-15T00:17:51;4.10;;;3.70;;
20621;SDS011;10470;42.670;23.354;2022-10-15T00:20:16;4.70;;;3.47;;
20621;SDS011;10470;42.670;23.354;2022-10-15T00:22:42;3.80;;;3.40;;
20621;SDS011;10470;42.670;23.354;2022-10-15T00:25:07;4.03;;;3.60;;
20621;SDS011;10470;42.670;23.354;2022-10-15T00:27:34;6.17;;;3.60;;
20621;SDS011;10470;42.670;23.354;2022-10-15T00:30:00;5.07;;;3.70;;
20621;SDS011;10470;42.670;23.354;2022-10-15T00:32:27;4.40;;;3.73;;
20621;SDS011;10470;42.670;23.354;2022-10-15T00:34:54;6.47;;;3.80;;
20621;SDS011;10470;42.670;23.354;2022-10-15T00:37:19;4.70;;;3.70;;
20621;SDS011;10470;42.670;23.354;2022-10-15T00:39:45;4.90;;;4.20;;
20621;SDS011;10470;42.670;23.354;2022-10-15T00:42:11;4.90;;;3.93;;
20621;SDS011;10470;42.670;23.354;2022-10-15T00:44:47;5.97;;;3.83;;
20621;SDS011;10470;42.670;23.354;2022-10-15T00:50:08;7.33;;;4.87;;
20621;SDS011;10470;42.670;23.354;2022-10-15T00:57:59;4.93;;;4.23;;
20621;SDS011;10470;42.670;23.354;2022-10-15T01:00:30;6.47;;;4.33;;
20621;SDS011;10470;42.670;23.354;2022-10-15T01:02:56;7.27;;;4.43;;
20621;SDS011;10470;42.670;23.354;2022-10-15T01:05:21;5.87;;;4.80;;
20621;SDS011;10470;42.670;23.354;2022-10-15T01:07:47;8.27;;;4.87;;
20621;SDS011;10470;42.670;23.354;2022-10-15T01:10:14;6.10;;;4.60;;
20621;SDS011;10470;42.670;23.354;2022-10-15T01:12:51;7.50;;;4.77;;
20621;SDS011;10470;42.670;23.354;2022-10-15T01:15:38;6.30;;;4.60;;
20621;SDS011;10470;42.670;23.354;2022-10-15T01:18:19;6.70;;;4.53;;
20621;SDS011;10470;42.670;23.354;2022-10-15T01:24:07;7.50;;;4.60;;
20621;SDS011;10470;42.670;23.354;2022-10-15T01:37:28;6.57;;;4.80;;
20621;SDS011;10470;42.670;23.354;2022-10-15T01:39:57;5.57;;;4.50;;
20621;SDS011;10470;42.670;23.354;2022-10-15T01:42:32;8.70;;;4.73;;
20621;SDS011;10470;42.670;23.354;2022-10-15T01:45:08;6.87;;;4.60;;
20621;SDS011;10470;42.670;23.354;2022-10-15T01:47:39;5.87;;;4.30;;
20621;SDS011;10470;42.670;23.354;2022-10-15T01:50:12;6.17;;;4.80;;
20621;SDS011;10470;42.670;23.354;2022-10-15T01:52:40;6.37;;;4.60;;
20621;SDS011;10470;42.670;23.354;2022-10-15T01:55:09;5.80;;;4.57;;
20621;SDS011;10470;42.670;23.354;2022-10-15T01:57:40;5.27;;;4.50;;
20621;SDS011;10470;42.670;23.354;2022-10-15T02:00:08;5.47;;;4.57;;
20621;SDS011;10470;42.670;23.354;2022-10-15T02:02:34;5.77;;;4.70;;
20621;SDS011;10470;42.670;23.354;2022-10-15T02:04:59;5.27;;;4.10;;
20621;SDS011;10470;42.670;23.354;2022-10-15T02:07:33;5.77;;;4.50;;
20621;SDS011;10470;42.670;23.354;2022-10-15T02:18:19;5.17;;;4.67;;
20621;SDS011;10470;42.670;23.354;2022-10-15T02:23:18;6.73;;;4.97;;
20621;SDS011;10470;42.670;23.354;2022-10-15T02:25:46;7.80;;;5.03;;
20621;SDS011;10470;42.670;23.354;2022-10-15T02:28:14;6.97;;;4.90;;
20621;SDS011;10470;42.670;23.354;2022-10-15T02:30:42;7.07;;;4.80;;
20621;SDS011;10470;42.670;23.354;2022-10-15T02:33:10;7.00;;;4.90;;
20621;SDS011;10470;42.670;23.354;2022-10-15T02:35:36;6.00;;;4.90;;
20621;SDS011;10470;42.670;23.354;2022-10-15T02:38:03;6.87;;;5.27;;
20621;SDS011;10470;42.670;23.354;2022-10-15T02:40:32;6.47;;;4.57;;
20621;SDS011;10470;42.670;23.354;2022-10-15T02:42:59;6.97;;;5.13;;
20621;SDS011;10470;42.670;23.354;2022-10-15T02:45:29;4.97;;;4.47;;
20621;SDS011;10470;42.670;23.354;2022-10-15T02:47:54;6.23;;;4.47;;
20621;SDS011;10470;42.670;23.354;2022-10-15T02:50:20;7.80;;;4.67;;
20621;SDS011;10470;42.670;23.354;2022-10-15T02:52:45;6.43;;;4.80;;
20621;SDS011;10470;42.670;23.354;2022-10-15T02:55:11;7.97;;;5.00;;
20621;SDS011;10470;42.670;23.354;2022-10-15T02:57:36;9.77;;;4.60;;
20621;SDS011;10470;42.670;23.354;2022-10-15T03:00:02;6.07;;;4.73;;
20621;SDS011;10470;42.670;23.354;2022-10-15T03:02:29;8.63;;;4.40;;
20621;SDS011;10470;42.670;23.354;2022-10-15T03:04:54;7.83;;;4.40;;
20621;SDS011;10470;42.670;23.354;2022-10-15T03:07:19;5.23;;;4.53;;
20621;SDS011;10470;42.670;23.354;2022-10-15T03:09:45;5.23;;;4.30;;
20621;SDS011;10470;42.670;23.354;2022-10-15T03:12:10;6.20;;;4.77;;
20621;SDS011;10470;42.670;23.354;2022-10-15T03:14:36;5.23;;;4.47;;
20621;SDS011;10470;42.670;23.354;2022-10-15T03:17:01;5.10;;;4.10;;
20621;SDS011;10470;42.670;23.354;2022-10-15T03:19:27;7.63;;;4.97;;
20621;SDS011;10470;42.670;23.354;2022-10-15T03:21:52;5.97;;;4.90;;
20621;SDS011;10470;42.670;23.354;2022-10-15T03:24:18;7.70;;;5.43;;
20621;SDS011;10470;42.670;23.354;2022-10-15T03:26:43;6.23;;;4.77;;
20621;SDS011;10470;42.670;23.354;2022-10-15T03:29:08;6.53;;;5.20;;
20621;SDS011;10470;42.670;23.354;2022-10-15T03:31:34;7.13;;;5.17;;
20621;SDS011;10470;42.670;23.354;2022-10-15T03:33:59;7.33;;;4.87;;
20621;SDS011;10470;42.670;23.354;2022-10-15T03:36:25;7.33;;;4.83;;
20621;SDS011;10470;42.670;23.354;2022-10-15T03:38:50;6.43;;;4.57;;
20621;SDS011;10470;42.670;23.354;2022-10-15T03:41:16;6.93;;;4.90;;
20621;SDS011;10470;42.670;23.354;2022-10-15T03:43:41;6.83;;;4.87;;
20621;SDS011;10470;42.670;23.354;2022-10-15T03:46:07;6.67;;;4.60;;
20621;SDS011;10470;42.670;23.354;2022-10-15T03:48:32;5.60;;;5.07;;
20621;SDS011;10470;42.670;23.354;2022-10-15T03:50:57;6.00;;;5.23;;
20621;SDS011;10470;42.670;23.354;2022-10-15T03:53:23;8.20;;;5.00;;
20621;SDS011;10470;42.670;23.354;2022-10-15T03:55:48;7.33;;;5.10;;
20621;SDS011;10470;42.670;23.354;2022-10-15T03:58:14;8.73;;;5.20;;
20621;SDS011;10470;42.670;23.354;2022-10-15T04:00:40;9.00;;;5.60;;
20621;SDS011;10470;42.670;23.354;2022-10-15T04:03:07;7.23;;;5.20;;
20621;SDS011;10470;42.670;23.354;2022-10-15T04:05:32;6.87;;;5.30;;
20621;SDS011;10470;42.670;23.354;2022-10-15T04:07:58;6.93;;;5.10;;
20621;SDS011;10470;42.670;23.354;2022-10-15T04:10:23;8.13;;;5.70;;
20621;SDS011;10470;42.670;23.354;2022-10-15T04:12:49;7.80;;;5.00;;
20621;SDS011;10470;42.670;23.354;2022-10-15T04:15:14;8.10;;;5.13;;
20621;SDS011;10470;42.670;23.354;2022-10-15T04:17:40;18.77;;;5.93;;
20621;SDS011;10470;42.670;23.354;2022-10-15T04:20:06;10.07;;;5.43;;
20621;SDS011;10470;42.670;23.354;2022-10-15T04:22:32;9.97;;;5.47;;
20621;SDS011;10470;42.670;23.354;2022-10-15T04:24:57;7.63;;;5.60;;
20621;SDS011;10470;42.670;23.354;2022-10-15T04:27:23;7.87;;;5.70;;
20621;SDS011;10470;42.670;23.354;2022-10-15T04:29:48;7.93;;;5.53;;
20621;SDS011;10470;42.670;23.354;2022-10-15T04:32:14;11.53;;;6.13;;
20621;SDS011;10470;42.670;23.354;2022-10-15T04:34:40;8.77;;;6.07;;
20621;SDS011;10470;42.670;23.354;2022-10-15T04:37:05;18.90;;;6.80;;
20621;SDS011;10470;42.670;23.354;2022-10-15T04:39:31;11.27;;;5.80;;
20621;SDS011;10470;42.670;23.354;2022-10-15T04:41:56;7.57;;;5.77;;
20621;SDS011;10470;42.670;23.354;2022-10-15T04:44:22;9.93;;;5.83;;
20621;SDS011;10470;42.670;23.354;2022-10-15T04:46:47;8.37;;;5.90;;
20621;SDS011;10470;42.670;23.354;2022-10-15T04:49:12;12.63;;;5.97;;
20621;SDS011;10470;42.670;23.354;2022-10-15T04:51:38;13.07;;;5.90;;
20621;SDS011;10470;42.670;23.354;2022-10-15T04:54:04;9.50;;;5.73;;
20621;SDS011;10470;42.670;23.354;2022-10-15T04:56:29;11.27;;;5.70;;
20621;SDS011;10470;42.670;23.354;2022-10-15T04:58:55;9.30;;;5.80;;
20621;SDS011;10470;42.670;23.354;2022-10-15T05:01:20;11.33;;;6.00;;
20621;SDS011;10470;42.670;23.354;2022-10-15T05:03:47;8.30;;;5.60;;
20621;SDS011;10470;42.670;23.354;2022-10-15T05:06:14;9.50;;;6.43;;
20621;SDS011;10470;42.670;23.354;2022-10-15T05:08:42;15.20;;;9.53;;
20621;SDS011;10470;42.670;23.354;2022-10-15T05:11:18;12.17;;;7.73;;
20621;SDS011;10470;42.670;23.354;2022-10-15T05:13:46;7.30;;;6.33;;
20621;SDS011;10470;42.670;23.354;2022-10-15T05:18:43;9.77;;;6.03;;
20621;SDS011;10470;42.670;23.354;2022-10-15T05:21:10;9.03;;;6.40;;
20621;SDS011;10470;42.670;23.354;2022-10-15T05:23:36;21.23;;;11.20;;
20621;SDS011;10470;42.670;23.354;2022-10-15T05:26:05;9.97;;;7.20;;
20621;SDS011;10470;42.670;23.354;2022-10-15T05:28:32;8.90;;;6.20;;
20621;SDS011;10470;42.670;23.354;2022-10-15T05:31:11;10.33;;;6.67;;
20621;SDS011;10470;42.670;23.354;2022-10-15T05:33:38;12.53;;;6.70;;
20621;SDS011;10470;42.670;23.354;2022-10-15T05:36:10;13.53;;;6.40;;
20621;SDS011;10470;42.670;23.354;2022-10-15T05:38:38;10.20;;;6.30;;
20621;SDS011;10470;42.670;23.354;2022-10-15T05:41:05;9.93;;;6.40;;
20621;SDS011;10470;42.670;23.354;2022-10-15T05:43:30;11.90;;;6.73;;
20621;SDS011;10470;42.670;23.354;2022-10-15T05:45:56;11.10;;;6.17;;
20621;SDS011;10470;42.670;23.354;2022-10-15T05:48:22;11.17;;;6.17;;
20621;SDS011;10470;42.670;23.354;2022-10-15T05:50:47;9.30;;;6.00;;
20621;SDS011;10470;42.670;23.354;2022-10-15T05:53:13;8.97;;;6.60;;
20621;SDS011;10470;42.670;23.354;2022-10-15T05:55:39;9.53;;;5.97;;
20621;SDS011;10470;42.670;23.354;2022-10-15T05:58:04;7.33;;;5.93;;
20621;SDS011;10470;42.670;23.354;2022-10-15T06:00:30;9.17;;;6.37;;
20621;SDS011;10470;42.670;23.354;2022-10-15T06:02:56;7.07;;;6.13;;
20621;SDS011;10470;42.670;23.354;2022-10-15T06:05:21;8.20;;;5.93;;
20621;SDS011;10470;42.670;23.354;2022-10-15T06:07:47;8.20;;;5.70;;
20621;SDS011;10470;42.670;23.354;2022-10-15T06:10:12;7.87;;;5.80;;
20621;SDS011;10470;42.670;23.354;2022-10-15T06:12:38;8.27;;;5.90;;
20621;SDS011;10470;42.670;23.354;2022-10-15T06:15:04;8.70;;;5.73;;
20621;SDS011;10470;42.670;23.354;2022-10-15T06:17:30;9.40;;;5.97;;
20621;SDS011;10470;42.670;23.354;2022-10-15T06:19:56;7.13;;;5.57;;
20621;SDS011;10470;42.670;23.354;2022-10-15T06:22:21;11.00;;;5.97;;
20621;SDS011;10470;42.670;23.354;2022-10-15T06:24:47;13.63;;;6.50;;
20621;SDS011;10470;42.670;23.354;2022-10-15T06:27:12;12.03;;;6.53;;
20621;SDS011;10470;42.670;23.354;2022-10-15T06:29:38;8.87;;;6.53;;
20621;SDS011;10470;42.670;23.354;2022-10-15T06:32:07;11.20;;;6.63;;
20621;SDS011;10470;42.670;23.354;2022-10-15T06:34:33;12.13;;;6.80;;
20621;SDS011;10470;42.670;23.354;2022-10-15T06:37:01;10.03;;;7.13;;
20621;SDS011;10470;42.670;23.354;2022-10-15T06:39:26;12.43;;;6.97;;
20621;SDS011;10470;42.670;23.354;2022-10-15T06:41:52;9.57;;;6.73;;
20621;SDS011;10470;42.670;23.354;2022-10-15T06:44:17;11.33;;;6.73;;
20621;SDS011;10470;42.670;23.354;2022-10-15T06:46:43;9.33;;;6.07;;
20621;SDS011;10470;42.670;23.354;2022-10-15T06:49:08;9.53;;;6.30;;
20621;SDS011;10470;42.670;23.354;2022-10-15T06:51:34;8.73;;;5.87;;
20621;SDS011;10470;42.670;23.354;2022-10-15T06:54:01;7.50;;;5.57;;
20621;SDS011;10470;42.670;23.354;2022-10-15T06:56:27;8.53;;;6.10;;
20621;SDS011;10470;42.670;23.354;2022-10-15T06:58:53;8.23;;;5.90;;
20621;SDS011;10470;42.670;23.354;2022-10-15T07:01:18;7.70;;;5.63;;
20621;SDS011;10470;42.670;23.354;2022-10-15T07:03:44;9.50;;;6.07;;
20621;SDS011;10470;42.670;23.354;2022-10-15T07:06:12;8.60;;;5.83;;
20621;SDS011;10470;42.670;23.354;2022-10-15T07:08:37;10.10;;;5.43;;
20621;SDS011;10470;42.670;23.354;2022-10-15T07:11:03;8.10;;;5.70;;
20621;SDS011;10470;42.670;23.354;2022-10-15T07:13:30;9.00;;;5.50;;
20621;SDS011;10470;42.670;23.354;2022-10-15T07:15:56;12.50;;;6.20;;
20621;SDS011;10470;42.670;23.354;2022-10-15T07:18:22;11.03;;;5.33;;
20621;SDS011;10470;42.670;23.354;2022-10-15T07:20:47;7.70;;;4.93;;
20621;SDS011;10470;42.670;23.354;2022-10-15T07:23:13;7.97;;;5.37;;
20621;SDS011;10470;42.670;23.354;2022-10-15T07:25:39;6.40;;;4.70;;
20621;SDS011;10470;42.670;23.354;2022-10-15T07:28:04;7.47;;;5.00;;
20621;SDS011;10470;42.670;23.354;2022-10-15T07:30:30;6.07;;;5.30;;
20621;SDS011;10470;42.670;23.354;2022-10-15T07:32:57;5.67;;;4.83;;
20621;SDS011;10470;42.670;23.354;2022-10-15T07:35:24;6.37;;;5.00;;
20621;SDS011;10470;42.670;23.354;2022-10-15T07:37:51;6.37;;;5.00;;
20621;SDS011;10470;42.670;23.354;2022-10-15T07:40:17;7.97;;;5.13;;
20621;SDS011;10470;42.670;23.354;2022-10-15T07:42:43;10.47;;;4.90;;
20621;SDS011;10470;42.670;23.354;2022-10-15T07:45:08;7.57;;;5.07;;
20621;SDS011;10470;42.670;23.354;2022-10-15T07:47:34;9.23;;;5.03;;
20621;SDS011;10470;42.670;23.354;2022-10-15T07:50:00;7.23;;;5.03;;
20621;SDS011;10470;42.670;23.354;2022-10-15T07:52:25;7.07;;;5.30;;
20621;SDS011;10470;42.670;23.354;2022-10-15T07:54:51;6.80;;;5.20;;
20621;SDS011;10470;42.670;23.354;2022-10-15T07:57:16;7.37;;;5.37;;
20621;SDS011;10470;42.670;23.354;2022-10-15T07:59:42;6.07;;;4.73;;
20621;SDS011;10470;42.670;23.354;2022-10-15T08:02:14;9.43;;;5.70;;
20621;SDS011;10470;42.670;23.354;2022-10-15T08:04:41;7.17;;;4.90;;
20621;SDS011;10470;42.670;23.354;2022-10-15T08:07:07;11.43;;;6.10;;
20621;SDS011;10470;42.670;23.354;2022-10-15T08:09:32;12.33;;;5.07;;
20621;SDS011;10470;42.670;23.354;2022-10-15T08:11:58;8.07;;;5.50;;
20621;SDS011;10470;42.670;23.354;2022-10-15T08:14:23;9.23;;;6.00;;
20621;SDS011;10470;42.670;23.354;2022-10-15T08:16:49;8.43;;;5.23;;
20621;SDS011;10470;42.670;23.354;2022-10-15T08:19:14;11.77;;;5.87;;
20621;SDS011;10470;42.670;23.354;2022-10-15T08:21:42;8.33;;;5.30;;
20621;SDS011;10470;42.670;23.354;2022-10-15T08:24:11;6.87;;;5.20;;
20621;SDS011;10470;42.670;23.354;2022-10-15T08:26:36;6.67;;;5.23;;
20621;SDS011;10470;42.670;23.354;2022-10-15T08:29:02;8.30;;;4.87;;
20621;SDS011;10470;42.670;23.354;2022-10-15T08:31:28;5.40;;;4.70;;
20621;SDS011;10470;42.670;23.354;2022-10-15T08:33:57;7.23;;;4.80;;
20621;SDS011;10470;42.670;23.354;2022-10-15T08:36:24;5.67;;;4.60;;
20621;SDS011;10470;42.670;23.354;2022-10-15T08:38:50;16.43;;;6.70;;
20621;SDS011;10470;42.670;23.354;2022-10-15T08:41:36;6.27;;;5.00;;
20621;SDS011;10470;42.670;23.354;2022-10-15T08:44:08;7.30;;;4.90;;
20621;SDS011;10470;42.670;23.354;2022-10-15T08:46:43;7.77;;;5.20;;
20621;SDS011;10470;42.670;23.354;2022-10-15T08:49:15;6.40;;;5.00;;
20621;SDS011;10470;42.670;23.354;2022-10-15T08:51:53;7.17;;;4.93;;
20621;SDS011;10470;42.670;23.354;2022-10-15T08:54:22;9.27;;;5.03;;
20621;SDS011;10470;42.670;23.354;2022-10-15T08:57:00;8.03;;;5.20;;
20621;SDS011;10470;42.670;23.354;2022-10-15T09:02:52;8.53;;;5.00;;
20621;SDS011;10470;42.670;23.354;2022-10-15T09:10:38;8.47;;;5.03;;
20621;SDS011;10470;42.670;23.354;2022-10-15T09:13:33;9.80;;;5.20;;
20621;SDS011;10470;42.670;23.354;2022-10-15T09:18:53;6.20;;;4.30;;
20621;SDS011;10470;42.670;23.354;2022-10-15T09:21:21;5.47;;;4.37;;
20621;SDS011;10470;42.670;23.354;2022-10-15T09:23:50;5.27;;;4.47;;
20621;SDS011;10470;42.670;23.354;2022-10-15T09:31:40;6.13;;;4.30;;
20621;SDS011;10470;42.670;23.354;2022-10-15T09:34:20;21.33;;;7.27;;
20621;SDS011;10470;42.670;23.354;2022-10-15T09:36:53;5.23;;;4.20;;
20621;SDS011;10470;42.670;23.354;2022-10-15T09:44:58;7.03;;;4.50;;
20621;SDS011;10470;42.670;23.354;2022-10-15T09:47:27;5.67;;;4.07;;
20621;SDS011;10470;42.670;23.354;2022-10-15T09:49:55;9.37;;;5.10;;
20621;SDS011;10470;42.670;23.354;2022-10-15T09:57:33;9.47;;;4.50;;
20621;SDS011;10470;42.670;23.354;2022-10-15T10:00:03;7.70;;;4.97;;
20621;SDS011;10470;42.670;23.354;2022-10-15T10:02:33;7.10;;;4.47;;
20621;SDS011;10470;42.670;23.354;2022-10-15T10:04:58;7.80;;;5.13;;
20621;SDS011;10470;42.670;23.354;2022-10-15T10:07:44;6.30;;;4.70;;
20621;SDS011;10470;42.670;23.354;2022-10-15T10:10:25;4.93;;;4.30;;
20621;SDS011;10470;42.670;23.354;2022-10-15T10:12:56;6.93;;;4.30;;
20621;SDS011;10470;42.670;23.354;2022-10-15T10:17:58;7.90;;;5.07;;
20621;SDS011;10470;42.670;23.354;2022-10-15T10:20:28;6.13;;;4.20;;
20621;SDS011;10470;42.670;23.354;2022-10-15T10:22:57;11.43;;;4.90;;
20621;SDS011;10470;42.670;23.354;2022-10-15T10:30:27;4.87;;;3.70;;
20621;SDS011;10470;42.670;23.354;2022-10-15T10:32:57;7.73;;;4.17;;
20621;SDS011;10470;42.670;23.354;2022-10-15T10:35:26;5.33;;;3.97;;
20621;SDS011;10470;42.670;23.354;2022-10-15T10:37:59;6.07;;;3.67;;
20621;SDS011;10470;42.670;23.354;2022-10-15T10:40:33;5.77;;;4.23;;
20621;SDS011;10470;42.670;23.354;2022-10-15T10:46:03;3.77;;;3.47;;
20621;SDS011;10470;42.670;23.354;2022-10-15T10:51:03;4.60;;;3.10;;
20621;SDS011;10470;42.670;23.354;2022-10-15T10:56:37;4.13;;;2.90;;
20621;SDS011;10470;42.670;23.354;2022-10-15T11:01:44;4.00;;;2.77;;
20621;SDS011;10470;42.670;23.354;2022-10-15T11:04:11;4.23;;;2.90;;
20621;SDS011;10470;42.670;23.354;2022-10-15T11:07:04;3.20;;;2.70;;
20621;SDS011;10470;42.670;23.354;2022-10-15T11:09:41;4.00;;;3.50;;
20621;SDS011;10470;42.670;23.354;2022-10-15T11:20:39;3.70;;;2.80;;
20621;SDS011;10470;42.670;23.354;2022-10-15T11:34:36;3.43;;;3.03;;
20621;SDS011;10470;42.670;23.354;2022-10-15T11:37:47;3.87;;;3.03;;
20621;SDS011;10470;42.670;23.354;2022-10-15T11:40:31;4.03;;;2.73;;
20621;SDS011;10470;42.670;23.354;2022-10-15T11:51:19;2.57;;;2.20;;
20621;SDS011;10470;42.670;23.354;2022-10-15T11:54:59;3.33;;;2.40;;
20621;SDS011;10470;42.670;23.354;2022-10-15T11:57:07;3.60;;;2.20;;
20621;SDS011;10470;42.670;23.354;2022-10-15T12:02:26;3.90;;;2.43;;
20621;SDS011;10470;42.670;23.354;2022-10-15T12:04:57;2.87;;;2.53;;
20621;SDS011;10470;42.670;23.354;2022-10-15T12:12:57;3.33;;;2.50;;
20621;SDS011;10470;42.670;23.354;2022-10-15T12:18:09;3.33;;;2.80;;
20621;SDS011;10470;42.670;23.354;2022-10-15T12:20:43;2.67;;;2.47;;
20621;SDS011;10470;42.670;23.354;2022-10-15T12:26:24;3.70;;;2.30;;
20621;SDS011;10470;42.670;23.354;2022-10-15T12:28:57;3.27;;;2.60;;
20621;SDS011;10470;42.670;23.354;2022-10-15T12:31:25;2.83;;;2.63;;
20621;SDS011;10470;42.670;23.354;2022-10-15T12:34:22;4.63;;;2.90;;
20621;SDS011;10470;42.670;23.354;2022-10-15T12:37:05;2.50;;;2.30;;
20621;SDS011;10470;42.670;23.354;2022-10-15T12:39:40;6.73;;;3.00;;
20621;SDS011;10470;42.670;23.354;2022-10-15T12:42:21;2.70;;;2.40;;
20621;SDS011;10470;42.670;23.354;2022-10-15T12:44:59;5.60;;;2.57;;
20621;SDS011;10470;42.670;23.354;2022-10-15T12:50:19;4.40;;;2.40;;
20621;SDS011;10470;42.670;23.354;2022-10-15T12:52:50;4.23;;;2.70;;
20621;SDS011;10470;42.670;23.354;2022-10-15T12:55:20;3.23;;;2.40;;
20621;SDS011;10470;42.670;23.354;2022-10-15T13:02:53;4.83;;;2.60;;
20621;SDS011;10470;42.670;23.354;2022-10-15T13:05:29;3.30;;;2.40;;
20621;SDS011;10470;42.670;23.354;2022-10-15T13:07:57;4.43;;;2.40;;
20621;SDS011;10470;42.670;23.354;2022-10-15T13:10:29;2.93;;;2.20;;
20621;SDS011;10470;42.670;23.354;2022-10-15T13:13:00;3.17;;;1.97;;
20621;SDS011;10470;42.670;23.354;2022-10-15T13:15:29;3.30;;;2.57;;
20621;SDS011;10470;42.670;23.354;2022-10-15T13:17:59;2.87;;;2.30;;
20621;SDS011;10470;42.670;23.354;2022-10-15T13:20:46;4.10;;;2.50;;
20621;SDS011;10470;42.670;23.354;2022-10-15T13:23:19;3.90;;;2.30;;
20621;SDS011;10470;42.670;23.354;2022-10-15T13:25:45;3.23;;;2.43;;
20621;SDS011;10470;42.670;23.354;2022-10-15T13:28:29;5.10;;;2.40;;
20621;SDS011;10470;42.670;23.354;2022-10-15T13:30:58;4.40;;;2.50;;
20621;SDS011;10470;42.670;23.354;2022-10-15T13:33:26;4.87;;;2.37;;
20621;SDS011;10470;42.670;23.354;2022-10-15T13:35:52;2.93;;;2.50;;
20621;SDS011;10470;42.670;23.354;2022-10-15T13:38:23;3.20;;;2.90;;
20621;SDS011;10470;42.670;23.354;2022-10-15T13:40:51;7.23;;;2.77;;
20621;SDS011;10470;42.670;23.354;2022-10-15T13:43:22;3.47;;;2.60;;
20621;SDS011;10470;42.670;23.354;2022-10-15T13:45:51;3.83;;;2.70;;
20621;SDS011;10470;42.670;23.354;2022-10-15T13:48:20;2.63;;;2.43;;
20621;SDS011;10470;42.670;23.354;2022-10-15T13:51:21;3.40;;;2.67;;
20621;SDS011;10470;42.670;23.354;2022-10-15T13:53:40;6.63;;;3.00;;
20621;SDS011;10470;42.670;23.354;2022-10-15T13:58:58;4.00;;;2.70;;
20621;SDS011;10470;42.670;23.354;2022-10-15T14:01:25;3.00;;;2.63;;
20621;SDS011;10470;42.670;23.354;2022-10-15T14:03:56;4.07;;;2.90;;
20621;SDS011;10470;42.670;23.354;2022-10-15T14:06:25;3.47;;;3.17;;
20621;SDS011;10470;42.670;23.354;2022-10-15T14:11:26;3.07;;;2.43;;
20621;SDS011;10470;42.670;23.354;2022-10-15T14:13:54;3.30;;;2.60;;
20621;SDS011;10470;42.670;23.354;2022-10-15T14:19:07;4.00;;;2.40;;
20621;SDS011;10470;42.670;23.354;2022-10-15T14:21:34;2.83;;;2.30;;
20621;SDS011;10470;42.670;23.354;2022-10-15T14:24:05;3.10;;;2.37;;
20621;SDS011;10470;42.670;23.354;2022-10-15T14:26:36;6.57;;;2.60;;
20621;SDS011;10470;42.670;23.354;2022-10-15T14:29:03;3.20;;;2.30;;
20621;SDS011;10470;42.670;23.354;2022-10-15T14:34:02;3.13;;;2.60;;
20621;SDS011;10470;42.670;23.354;2022-10-15T14:36:29;2.63;;;2.37;;
20621;SDS011;10470;42.670;23.354;2022-10-15T14:42:02;2.63;;;2.30;;
20621;SDS011;10470;42.670;23.354;2022-10-15T14:44:43;5.57;;;2.50;;
20621;SDS011;10470;42.670;23.354;2022-10-15T14:47:29;3.67;;;2.20;;
20621;SDS011;10470;42.670;23.354;2022-10-15T14:49:59;2.43;;;2.23;;
20621;SDS011;10470;42.670;23.354;2022-10-15T14:52:26;3.63;;;2.77;;
20621;SDS011;10470;42.670;23.354;2022-10-15T14:55:02;3.07;;;2.50;;
20621;SDS011;10470;42.670;23.354;2022-10-15T14:57:33;2.83;;;2.53;;
20621;SDS011;10470;42.670;23.354;2022-10-15T15:00:04;3.80;;;2.50;;
20621;SDS011;10470;42.670;23.354;2022-10-15T15:02:38;3.73;;;2.73;;
20621;SDS011;10470;42.670;23.354;2022-10-15T15:05:14;4.27;;;3.83;;
20621;SDS011;10470;42.670;23.354;2022-10-15T15:07:44;2.90;;;2.60;;
20621;SDS011;10470;42.670;23.354;2022-10-15T15:10:12;4.33;;;2.43;;
20621;SDS011;10470;42.670;23.354;2022-10-15T15:12:38;4.43;;;2.40;;
20621;SDS011;10470;42.670;23.354;2022-10-15T15:15:17;4.30;;;2.50;;
20621;SDS011;10470;42.670;23.354;2022-10-15T15:17:44;4.50;;;2.30;;
20621;SDS011;10470;42.670;23.354;2022-10-15T15:20:12;3.67;;;2.17;;
20621;SDS011;10470;42.670;23.354;2022-10-15T15:22:38;3.23;;;2.30;;
20621;SDS011;10470;42.670;23.354;2022-10-15T15:25:12;8.50;;;7.70;;
20621;SDS011;10470;42.670;23.354;2022-10-15T15:27:40;5.90;;;3.23;;
20621;SDS011;10470;42.670;23.354;2022-10-15T15:30:07;4.27;;;2.60;;
20621;SDS011;10470;42.670;23.354;2022-10-15T15:32:39;3.80;;;2.20;;
20621;SDS011;10470;42.670;23.354;2022-10-15T15:35:09;3.90;;;2.37;;
20621;SDS011;10470;42.670;23.354;2022-10-15T15:37:49;4.70;;;2.30;;
20621;SDS011;10470;42.670;23.354;2022-10-15T15:40:16;5.43;;;2.90;;
20621;SDS011;10470;42.670;23.354;2022-10-15T15:42:42;5.87;;;3.43;;
20621;SDS011;10470;42.670;23.354;2022-10-15T15:45:25;5.27;;;3.00;;
20621;SDS011;10470;42.670;23.354;2022-10-15T15:47:51;4.93;;;2.90;;
20621;SDS011;10470;42.670;23.354;2022-10-15T15:50:17;6.43;;;2.90;;
20621;SDS011;10470;42.670;23.354;2022-10-15T15:52:44;4.30;;;2.57;;
20621;SDS011;10470;42.670;23.354;2022-10-15T15:55:10;5.50;;;3.07;;
20621;SDS011;10470;42.670;23.354;2022-10-15T15:57:36;7.97;;;3.60;;
20621;SDS011;10470;42.670;23.354;2022-10-15T16:00:03;5.50;;;3.70;;
20621;SDS011;10470;42.670;23.354;2022-10-15T16:02:30;7.73;;;4.40;;
20621;SDS011;10470;42.670;23.354;2022-10-15T16:04:56;9.77;;;4.50;;
20621;SDS011;10470;42.670;23.354;2022-10-15T16:07:21;5.00;;;3.77;;
20621;SDS011;10470;42.670;23.354;2022-10-15T16:09:47;7.10;;;3.90;;
20621;SDS011;10470;42.670;23.354;2022-10-15T16:12:12;5.20;;;3.33;;
20621;SDS011;10470;42.670;23.354;2022-10-15T16:14:38;6.43;;;3.70;;
20621;SDS011;10470;42.670;23.354;2022-10-15T16:17:03;5.63;;;3.60;;
20621;SDS011;10470;42.670;23.354;2022-10-15T16:19:29;6.27;;;3.67;;
20621;SDS011;10470;42.670;23.354;2022-10-15T16:21:54;5.47;;;3.73;;
20621;SDS011;10470;42.670;23.354;2022-10-15T16:24:20;10.03;;;4.77;;
20621;SDS011;10470;42.670;23.354;2022-10-15T16:26:46;8.53;;;4.17;;
20621;SDS011;10470;42.670;23.354;2022-10-15T16:29:11;9.40;;;3.93;;
20621;SDS011;10470;42.670;23.354;2022-10-15T16:31:39;4.73;;;3.63;;
20621;SDS011;10470;42.670;23.354;2022-10-15T16:34:04;5.37;;;3.97;;
20621;SDS011;10470;42.670;23.354;2022-10-15T16:36:30;5.20;;;3.70;;
20621;SDS011;10470;42.670;23.354;2022-10-15T16:38:56;4.73;;;3.60;;
20621;SDS011;10470;42.670;23.354;2022-10-15T16:41:22;5.07;;;3.63;;
20621;SDS011;10470;42.670;23.354;2022-10-15T16:43:48;6.03;;;3.50;;
20621;SDS011;10470;42.670;23.354;2022-10-15T16:46:15;5.07;;;3.80;;
20621;SDS011;10470;42.670;23.354;2022-10-15T16:48:42;5.70;;;3.90;;
20621;SDS011;10470;42.670;23.354;2022-10-15T16:51:09;5.97;;;3.97;;
20621;SDS011;10470;42.670;23.354;2022-10-15T16:53:36;4.50;;;3.60;;
20621;SDS011;10470;42.670;23.354;2022-10-15T16:56:06;5.63;;;3.80;;
20621;SDS011;10470;42.670;23.354;2022-10-15T16:58:32;7.40;;;4.20;;
20621;SDS011;10470;42.670;23.354;2022-10-15T17:01:02;5.53;;;3.50;;
20621;SDS011;10470;42.670;23.354;2022-10-15T17:03:34;7.93;;;4.10;;
20621;SDS011;10470;42.670;23.354;2022-10-15T17:06:01;3.73;;;3.33;;
20621;SDS011;10470;42.670;23.354;2022-10-15T17:08:37;6.00;;;3.30;;